sensor_id;sensor_type;location;lat;lon;timestamp;noise_LAeq;noise_LA_min;noise_LA_max;noise_LA01;noise_LA95
70077;Laerm;57448;51.490;5.436;2024-03-23T00:54:31;38.83;35.75;44.02;;
70077;Laerm;57448;51.490;5.436;2024-03-23T00:56:57;39.76;35.89;46.97;;
70077;Laerm;57448;51.490;5.436;2024-03-23T00:59:22;38.62;35.82;44.46;;
70077;Laerm;57448;51.490;5.436;2024-03-23T01:01:52;39.22;36.24;44.70;;
70077;Laerm;57448;51.490;5.436;2024-03-23T01:04:17;39.84;36.60;47.17;;
70077;Laerm;57448;51.490;5.436;2024-03-23T01:06:42;40.03;37.31;43.16;;
70077;Laerm;57448;51.490;5.436;2024-03-23T01:09:08;40.12;38.04;47.07;;
70077;Laerm;57448;51.490;5.436;2024-03-23T01:11:35;40.47;37.26;47.89;;
70077;Laerm;57448;51.490;5.436;2024-03-23T01:14:01;39.55;36.97;47.67;;
70077;Laerm;57448;51.490;5.436;2024-03-23T01:16:26;40.08;37.00;55.34;;
70077;Laerm;57448;51.490;5.436;2024-03-23T01:18:51;41.46;38.24;57.80;;
70077;Laerm;57448;51.490;5.436;2024-03-23T01:21:17;41.17;37.67;55.63;;
70077;Laerm;57448;51.490;5.436;2024-03-23T01:23:42;43.83;37.48;54.36;;
70077;Laerm;57448;51.490;5.436;2024-03-23T01:26:08;43.21;39.11;52.52;;
70077;Laerm;57448;51.490;5.436;2024-03-23T01:28:33;40.67;36.62;49.82;;
70077;Laerm;57448;51.490;5.436;2024-03-23T01:30:58;41.62;36.64;46.60;;
70077;Laerm;57448;51.490;5.436;2024-03-23T01:33:24;40.39;35.66;50.24;;
70077;Laerm;57448;51.490;5.436;2024-03-23T01:35:49;40.31;35.45;46.11;;
70077;Laerm;57448;51.490;5.436;2024-03-23T01:38:14;40.38;36.02;50.10;;
70077;Laerm;57448;51.490;5.436;2024-03-23T01:40:40;41.51;37.82;46.32;;
70077;Laerm;57448;51.490;5.436;2024-03-23T01:43:06;40.07;36.16;45.52;;
70077;Laerm;57448;51.490;5.436;2024-03-23T01:45:33;39.94;36.08;50.51;;
70077;Laerm;57448;51.490;5.436;2024-03-23T01:47:58;40.61;35.56;46.29;;
70077;Laerm;57448;51.490;5.436;2024-03-23T01:50:24;39.88;35.16;47.15;;
70077;Laerm;57448;51.490;5.436;2024-03-23T01:52:50;39.09;36.77;43.33;;
70077;Laerm;57448;51.490;5.436;2024-03-23T01:55:15;38.90;36.04;44.17;;
70077;Laerm;57448;51.490;5.436;2024-03-23T01:57:41;38.46;35.89;42.51;;
70077;Laerm;57448;51.490;5.436;2024-03-23T02:00:07;39.66;36.63;51.50;;
70077;Laerm;57448;51.490;5.436;2024-03-23T02:02:33;39.47;35.02;45.19;;
70077;Laerm;57448;51.490;5.436;2024-03-23T02:04:58;39.19;33.87;46.77;;
70077;Laerm;57448;51.490;5.436;2024-03-23T02:07:24;39.32;35.29;44.60;;
70077;Laerm;57448;51.490;5.436;2024-03-23T02:09:50;41.54;37.85;50.80;;
70077;Laerm;57448;51.490;5.436;2024-03-23T02:12:16;42.53;37.90;51.83;;
70077;Laerm;57448;51.490;5.436;2024-03-23T02:14:42;42.47;37.88;48.63;;
70077;Laerm;57448;51.490;5.436;2024-03-23T02:17:07;40.57;36.56;47.59;;
70077;Laerm;57448;51.490;5.436;2024-03-23T02:19:33;41.42;35.75;47.38;;
70077;Laerm;57448;51.490;5.436;2024-03-23T02:21:59;40.65;35.72;46.68;;
70077;Laerm;57448;51.490;5.436;2024-03-23T02:24:24;39.52;36.91;43.43;;
70077;Laerm;57448;51.490;5.436;2024-03-23T02:26:50;38.77;35.14;46.75;;
70077;Laerm;57448;51.490;5.436;2024-03-23T02:29:15;37.39;33.74;45.69;;
70077;Laerm;57448;51.490;5.436;2024-03-23T02:31:41;37.58;34.15;48.32;;
70077;Laerm;57448;51.490;5.436;2024-03-23T02:34:06;37.47;33.61;41.39;;
70077;Laerm;57448;51.490;5.436;2024-03-23T02:36:31;37.94;34.25;44.46;;
70077;Laerm;57448;51.490;5.436;2024-03-23T02:38:57;36.68;32.95;44.71;;
70077;Laerm;57448;51.490;5.436;2024-03-23T02:41:22;35.32;32.46;40.36;;
70077;Laerm;57448;51.490;5.436;2024-03-23T02:43:51;35.07;32.72;45.60;;
70077;Laerm;57448;51.490;5.436;2024-03-23T02:46:17;36.25;33.07;41.46;;
70077;Laerm;57448;51.490;5.436;2024-03-23T02:48:42;36.59;34.25;50.16;;
70077;Laerm;57448;51.490;5.436;2024-03-23T02:51:08;36.79;33.73;41.91;;
70077;Laerm;57448;51.490;5.436;2024-03-23T02:53:33;36.65;33.47;42.29;;
70077;Laerm;57448;51.490;5.436;2024-03-23T02:55:58;36.45;33.07;40.61;;
70077;Laerm;57448;51.490;5.436;2024-03-23T02:58:24;38.11;34.96;41.91;;
70077;Laerm;57448;51.490;5.436;2024-03-23T03:00:49;38.97;36.10;42.15;;
70077;Laerm;57448;51.490;5.436;2024-03-23T03:03:15;38.85;35.16;42.71;;
70077;Laerm;57448;51.490;5.436;2024-03-23T03:05:40;39.10;35.83;51.07;;
70077;Laerm;57448;51.490;5.436;2024-03-23T03:08:05;39.15;35.64;46.43;;
70077;Laerm;57448;51.490;5.436;2024-03-23T03:10:31;39.72;35.59;47.88;;
70077;Laerm;57448;51.490;5.436;2024-03-23T03:12:59;38.32;34.83;46.83;;
70077;Laerm;57448;51.490;5.436;2024-03-23T03:15:25;39.62;36.34;48.26;;
70077;Laerm;57448;51.490;5.436;2024-03-23T03:17:50;40.62;35.47;49.61;;
70077;Laerm;57448;51.490;5.436;2024-03-23T03:20:15;38.41;35.24;45.91;;
70077;Laerm;57448;51.490;5.436;2024-03-23T03:22:42;38.86;35.29;45.30;;
70077;Laerm;57448;51.490;5.436;2024-03-23T03:25:08;40.15;35.35;50.06;;
70077;Laerm;57448;51.490;5.436;2024-03-23T03:27:33;41.00;37.54;49.43;;
70077;Laerm;57448;51.490;5.436;2024-03-23T03:29:59;40.44;37.52;46.60;;
70077;Laerm;57448;51.490;5.436;2024-03-23T03:32:27;39.18;35.48;47.38;;
70077;Laerm;57448;51.490;5.436;2024-03-23T03:34:53;41.36;37.38;48.69;;
70077;Laerm;57448;51.490;5.436;2024-03-23T03:37:18;41.47;38.24;47.14;;
70077;Laerm;57448;51.490;5.436;2024-03-23T03:39:43;40.70;37.40;47.87;;
70077;Laerm;57448;51.490;5.436;2024-03-23T03:42:09;40.74;37.41;46.01;;
70077;Laerm;57448;51.490;5.436;2024-03-23T03:44:34;41.06;37.01;48.23;;
70077;Laerm;57448;51.490;5.436;2024-03-23T03:47:01;40.44;36.35;49.19;;
70077;Laerm;57448;51.490;5.436;2024-03-23T03:49:27;40.10;35.78;48.25;;
70077;Laerm;57448;51.490;5.436;2024-03-23T03:51:52;40.69;36.11;48.14;;
70077;Laerm;57448;51.490;5.436;2024-03-23T03:54:17;42.01;37.74;50.26;;
70077;Laerm;57448;51.490;5.436;2024-03-23T03:56:43;42.47;38.31;51.95;;
70077;Laerm;57448;51.490;5.436;2024-03-23T03:59:08;42.37;38.00;51.82;;
70077;Laerm;57448;51.490;5.436;2024-03-23T04:01:34;44.24;40.06;51.82;;
70077;Laerm;57448;51.490;5.436;2024-03-23T04:04:00;42.35;38.06;48.30;;
70077;Laerm;57448;51.490;5.436;2024-03-23T04:06:25;42.63;38.80;49.60;;
70077;Laerm;57448;51.490;5.436;2024-03-23T04:08:51;42.79;39.62;49.48;;
70077;Laerm;57448;51.490;5.436;2024-03-23T04:11:16;43.07;39.51;49.09;;
70077;Laerm;57448;51.490;5.436;2024-03-23T04:13:41;43.11;39.66;50.43;;
70077;Laerm;57448;51.490;5.436;2024-03-23T04:16:07;43.29;37.56;51.07;;
70077;Laerm;57448;51.490;5.436;2024-03-23T04:18:32;43.16;38.95;53.05;;
70077;Laerm;57448;51.490;5.436;2024-03-23T04:20:58;42.99;38.63;52.94;;
70077;Laerm;57448;51.490;5.436;2024-03-23T04:23:23;43.03;39.57;51.01;;
70077;Laerm;57448;51.490;5.436;2024-03-23T04:25:48;42.91;39.65;48.90;;
70077;Laerm;57448;51.490;5.436;2024-03-23T04:28:14;41.88;38.47;47.14;;
70077;Laerm;57448;51.490;5.436;2024-03-23T04:30:39;43.42;40.15;48.89;;
70077;Laerm;57448;51.490;5.436;2024-03-23T04:33:05;44.15;40.57;51.22;;
70077;Laerm;57448;51.490;5.436;2024-03-23T04:35:30;43.90;40.86;49.30;;
70077;Laerm;57448;51.490;5.436;2024-03-23T04:37:55;44.72;41.47;52.76;;
70077;Laerm;57448;51.490;5.436;2024-03-23T04:40:23;44.80;41.62;52.07;;
70077;Laerm;57448;51.490;5.436;2024-03-23T04:42:49;46.66;42.52;52.26;;
70077;Laerm;57448;51.490;5.436;2024-03-23T04:45:14;46.56;42.25;54.57;;
70077;Laerm;57448;51.490;5.436;2024-03-23T04:47:40;51.69;42.97;62.30;;
70077;Laerm;57448;51.490;5.436;2024-03-23T04:50:05;51.65;41.60;61.80;;
70077;Laerm;57448;51.490;5.436;2024-03-23T04:52:31;50.45;41.83;60.19;;
70077;Laerm;57448;51.490;5.436;2024-03-23T04:54:56;52.17;42.45;62.48;;
70077;Laerm;57448;51.490;5.436;2024-03-23T04:57:22;51.76;42.90;67.29;;
70077;Laerm;57448;51.490;5.436;2024-03-23T04:59:48;51.76;43.36;68.81;;
70077;Laerm;57448;51.490;5.436;2024-03-23T05:02:13;53.03;42.79;66.72;;
70077;Laerm;57448;51.490;5.436;2024-03-23T05:04:39;54.22;42.47;67.34;;
70077;Laerm;57448;51.490;5.436;2024-03-23T05:07:05;56.39;42.55;67.83;;
70077;Laerm;57448;51.490;5.436;2024-03-23T05:09:31;51.70;42.19;67.44;;
70077;Laerm;57448;51.490;5.436;2024-03-23T05:11:57;49.57;42.37;65.00;;
70077;Laerm;57448;51.490;5.436;2024-03-23T05:14:23;52.43;42.58;63.25;;
70077;Laerm;57448;51.490;5.436;2024-03-23T05:16:48;58.55;42.05;72.30;;
70077;Laerm;57448;51.490;5.436;2024-03-23T05:19:14;46.75;42.67;54.84;;
70077;Laerm;57448;51.490;5.436;2024-03-23T05:21:39;52.39;42.88;65.59;;
70077;Laerm;57448;51.490;5.436;2024-03-23T05:24:04;55.66;42.71;66.44;;
70077;Laerm;57448;51.490;5.436;2024-03-23T05:26:30;49.10;42.66;62.72;;
70077;Laerm;57448;51.490;5.436;2024-03-23T05:28:56;54.39;42.86;72.66;;
70077;Laerm;57448;51.490;5.436;2024-03-23T05:31:24;56.13;43.35;74.50;;
70077;Laerm;57448;51.490;5.436;2024-03-23T05:33:50;49.70;43.33;64.81;;
70077;Laerm;57448;51.490;5.436;2024-03-23T05:36:15;47.31;43.67;54.11;;
70077;Laerm;57448;51.490;5.436;2024-03-23T05:38:40;46.66;43.83;51.71;;
70077;Laerm;57448;51.490;5.436;2024-03-23T05:41:06;47.73;44.04;55.20;;
70077;Laerm;57448;51.490;5.436;2024-03-23T05:43:31;47.27;43.72;58.99;;
70077;Laerm;57448;51.490;5.436;2024-03-23T05:45:57;48.39;43.59;58.08;;
70077;Laerm;57448;51.490;5.436;2024-03-23T05:48:23;49.59;43.96;63.56;;
70077;Laerm;57448;51.490;5.436;2024-03-23T05:50:49;47.28;44.56;57.95;;
70077;Laerm;57448;51.490;5.436;2024-03-23T05:53:15;46.94;43.59;56.17;;
70077;Laerm;57448;51.490;5.436;2024-03-23T05:55:40;47.73;44.02;64.74;;
70077;Laerm;57448;51.490;5.436;2024-03-23T05:58:06;48.19;44.73;53.46;;
70077;Laerm;57448;51.490;5.436;2024-03-23T06:00:31;47.79;44.55;66.90;;
70077;Laerm;57448;51.490;5.436;2024-03-23T06:02:56;49.74;43.67;63.98;;
70077;Laerm;57448;51.490;5.436;2024-03-23T06:05:22;49.56;43.46;67.96;;
70077;Laerm;57448;51.490;5.436;2024-03-23T06:07:48;48.09;44.08;64.42;;
70077;Laerm;57448;51.490;5.436;2024-03-23T06:10:14;47.38;44.07;57.46;;
70077;Laerm;57448;51.490;5.436;2024-03-23T06:12:40;47.82;44.14;55.17;;
70077;Laerm;57448;51.490;5.436;2024-03-23T06:15:05;46.92;44.48;54.63;;
70077;Laerm;57448;51.490;5.436;2024-03-23T06:17:35;48.02;45.76;52.14;;
70077;Laerm;57448;51.490;5.436;2024-03-23T06:20:00;50.63;46.06;64.35;;
70077;Laerm;57448;51.490;5.436;2024-03-23T06:22:26;53.89;46.73;68.01;;
70077;Laerm;57448;51.490;5.436;2024-03-23T06:24:51;52.17;46.52;69.98;;
70077;Laerm;57448;51.490;5.436;2024-03-23T06:27:16;51.83;45.58;63.53;;
70077;Laerm;57448;51.490;5.436;2024-03-23T06:29:42;48.92;45.59;56.24;;
70077;Laerm;57448;51.490;5.436;2024-03-23T06:32:07;49.41;46.46;55.80;;
70077;Laerm;57448;51.490;5.436;2024-03-23T06:34:32;50.08;45.65;60.84;;
70077;Laerm;57448;51.490;5.436;2024-03-23T06:36:58;48.62;45.43;56.72;;
70077;Laerm;57448;51.490;5.436;2024-03-23T06:39:23;49.25;45.73;56.34;;
70077;Laerm;57448;51.490;5.436;2024-03-23T06:41:52;49.53;46.51;57.57;;
70077;Laerm;57448;51.490;5.436;2024-03-23T06:44:18;50.04;46.92;57.07;;
70077;Laerm;57448;51.490;5.436;2024-03-23T06:46:44;52.05;46.46;62.76;;
70077;Laerm;57448;51.490;5.436;2024-03-23T06:49:09;50.44;46.68;63.58;;
70077;Laerm;57448;51.490;5.436;2024-03-23T06:51:35;50.92;45.32;63.89;;
70077;Laerm;57448;51.490;5.436;2024-03-23T06:54:00;48.44;45.59;53.01;;
70077;Laerm;57448;51.490;5.436;2024-03-23T06:56:26;50.11;45.84;68.41;;
70077;Laerm;57448;51.490;5.436;2024-03-23T06:58:51;49.35;46.05;58.00;;
70077;Laerm;57448;51.490;5.436;2024-03-23T07:01:16;53.85;46.79;65.98;;
70077;Laerm;57448;51.490;5.436;2024-03-23T07:03:42;54.42;46.00;66.96;;
70077;Laerm;57448;51.490;5.436;2024-03-23T07:06:09;52.20;45.90;65.77;;
70077;Laerm;57448;51.490;5.436;2024-03-23T07:08:34;54.11;45.61;67.01;;
70077;Laerm;57448;51.490;5.436;2024-03-23T07:11:00;54.63;46.03;66.88;;
70077;Laerm;57448;51.490;5.436;2024-03-23T07:13:25;47.68;45.73;49.95;;
70077;Laerm;57448;51.490;5.436;2024-03-23T07:15:51;49.45;45.67;60.09;;
70077;Laerm;57448;51.490;5.436;2024-03-23T07:18:16;48.67;46.15;52.88;;
70077;Laerm;57448;51.490;5.436;2024-03-23T07:20:42;52.37;47.84;69.00;;
70077;Laerm;57448;51.490;5.436;2024-03-23T07:23:07;54.35;47.29;71.77;;
70077;Laerm;57448;51.490;5.436;2024-03-23T07:25:32;50.92;46.61;60.18;;
70077;Laerm;57448;51.490;5.436;2024-03-23T07:27:58;52.89;45.77;69.02;;
70077;Laerm;57448;51.490;5.436;2024-03-23T07:30:23;51.05;45.64;58.97;;
70077;Laerm;57448;51.490;5.436;2024-03-23T07:32:48;54.72;46.49;70.33;;
70077;Laerm;57448;51.490;5.436;2024-03-23T07:35:14;55.47;46.91;69.71;;
70077;Laerm;57448;51.490;5.436;2024-03-23T07:37:39;54.53;47.33;64.65;;
70077;Laerm;57448;51.490;5.436;2024-03-23T07:40:05;56.56;47.44;70.09;;
70077;Laerm;57448;51.490;5.436;2024-03-23T07:42:30;52.33;45.54;68.77;;
70077;Laerm;57448;51.490;5.436;2024-03-23T07:44:56;54.40;47.18;68.14;;
70077;Laerm;57448;51.490;5.436;2024-03-23T07:47:22;49.42;46.01;53.41;;
70077;Laerm;57448;51.490;5.436;2024-03-23T07:49:47;49.26;46.05;59.66;;
70077;Laerm;57448;51.490;5.436;2024-03-23T07:52:12;48.89;46.21;56.96;;
70077;Laerm;57448;51.490;5.436;2024-03-23T07:54:38;48.92;46.56;62.64;;
70077;Laerm;57448;51.490;5.436;2024-03-23T07:57:03;51.03;46.14;65.04;;
70077;Laerm;57448;51.490;5.436;2024-03-23T07:59:29;55.08;46.62;66.56;;
70077;Laerm;57448;51.490;5.436;2024-03-23T08:01:56;49.79;47.18;56.50;;
70077;Laerm;57448;51.490;5.436;2024-03-23T08:04:22;54.99;46.63;68.93;;
70077;Laerm;57448;51.490;5.436;2024-03-23T08:06:47;50.37;46.57;64.30;;
70077;Laerm;57448;51.490;5.436;2024-03-23T08:09:13;54.09;46.93;69.16;;
70077;Laerm;57448;51.490;5.436;2024-03-23T08:11:38;50.89;46.02;63.85;;
70077;Laerm;57448;51.490;5.436;2024-03-23T08:14:04;51.77;46.83;60.77;;
70077;Laerm;57448;51.490;5.436;2024-03-23T08:16:29;49.74;46.50;58.15;;
70077;Laerm;57448;51.490;5.436;2024-03-23T08:18:55;50.06;46.09;56.55;;
70077;Laerm;57448;51.490;5.436;2024-03-23T08:21:23;51.00;47.28;64.93;;
70077;Laerm;57448;51.490;5.436;2024-03-23T08:23:50;51.78;47.05;70.64;;
70077;Laerm;57448;51.490;5.436;2024-03-23T08:26:15;52.07;48.26;70.08;;
70077;Laerm;57448;51.490;5.436;2024-03-23T08:28:41;49.92;46.69;59.12;;
70077;Laerm;57448;51.490;5.436;2024-03-23T08:31:08;52.59;47.41;70.14;;
70077;Laerm;57448;51.490;5.436;2024-03-23T08:33:33;51.52;48.56;66.64;;
70077;Laerm;57448;51.490;5.436;2024-03-23T08:36:03;50.88;47.48;60.06;;
70077;Laerm;57448;51.490;5.436;2024-03-23T08:38:29;53.48;49.60;66.12;;
70077;Laerm;57448;51.490;5.436;2024-03-23T08:40:58;52.28;48.27;69.01;;
70077;Laerm;57448;51.490;5.436;2024-03-23T08:43:24;51.48;48.00;59.61;;
70077;Laerm;57448;51.490;5.436;2024-03-23T08:45:50;52.27;48.38;67.59;;
70077;Laerm;57448;51.490;5.436;2024-03-23T08:48:15;52.86;49.50;59.95;;
70077;Laerm;57448;51.490;5.436;2024-03-23T08:50:41;57.20;50.65;71.94;;
70077;Laerm;57448;51.490;5.436;2024-03-23T08:53:06;53.85;49.47;71.17;;
70077;Laerm;57448;51.490;5.436;2024-03-23T08:55:31;53.37;49.49;62.38;;
70077;Laerm;57448;51.490;5.436;2024-03-23T08:57:57;53.90;48.86;64.90;;
70077;Laerm;57448;51.490;5.436;2024-03-23T09:00:22;55.42;50.90;71.05;;
70077;Laerm;57448;51.490;5.436;2024-03-23T09:02:48;54.27;50.68;60.69;;
70077;Laerm;57448;51.490;5.436;2024-03-23T09:05:13;57.43;52.53;76.06;;
70077;Laerm;57448;51.490;5.436;2024-03-23T09:07:39;54.77;51.49;73.43;;
70077;Laerm;57448;51.490;5.436;2024-03-23T09:10:04;54.98;52.40;67.07;;
70077;Laerm;57448;51.490;5.436;2024-03-23T09:12:30;59.24;54.04;68.69;;
70077;Laerm;57448;51.490;5.436;2024-03-23T09:14:55;56.00;52.94;62.43;;
70077;Laerm;57448;51.490;5.436;2024-03-23T09:17:20;54.15;51.46;62.09;;
70077;Laerm;57448;51.490;5.436;2024-03-23T09:19:46;54.65;51.26;64.90;;
70077;Laerm;57448;51.490;5.436;2024-03-23T09:22:11;54.15;51.83;60.04;;
70077;Laerm;57448;51.490;5.436;2024-03-23T09:24:36;53.82;50.87;58.03;;
70077;Laerm;57448;51.490;5.436;2024-03-23T09:27:03;53.71;51.13;58.59;;
70077;Laerm;57448;51.490;5.436;2024-03-23T09:29:29;52.59;49.88;59.32;;
70077;Laerm;57448;51.490;5.436;2024-03-23T09:31:54;56.48;50.89;68.50;;
70077;Laerm;57448;51.490;5.436;2024-03-23T09:34:19;55.93;49.85;66.89;;
70077;Laerm;57448;51.490;5.436;2024-03-23T09:36:45;51.49;49.05;55.62;;
70077;Laerm;57448;51.490;5.436;2024-03-23T09:39:10;53.82;49.65;67.86;;
70077;Laerm;57448;51.490;5.436;2024-03-23T09:41:36;52.95;48.87;63.56;;
70077;Laerm;57448;51.490;5.436;2024-03-23T09:44:01;51.77;49.53;54.72;;
70077;Laerm;57448;51.490;5.436;2024-03-23T09:46:27;51.59;48.63;55.10;;
70077;Laerm;57448;51.490;5.436;2024-03-23T09:48:53;52.85;49.06;69.01;;
70077;Laerm;57448;51.490;5.436;2024-03-23T09:51:20;55.03;49.47;76.02;;
70077;Laerm;57448;51.490;5.436;2024-03-23T09:53:45;53.44;48.06;63.23;;
70077;Laerm;57448;51.490;5.436;2024-03-23T09:56:11;52.11;48.07;74.19;;
70077;Laerm;57448;51.490;5.436;2024-03-23T09:58:36;52.11;49.05;62.90;;
70077;Laerm;57448;51.490;5.436;2024-03-23T10:01:01;54.29;48.50;67.78;;
70077;Laerm;57448;51.490;5.436;2024-03-23T10:03:28;52.90;49.19;63.88;;
70077;Laerm;57448;51.490;5.436;2024-03-23T10:06:02;51.61;48.13;60.93;;
70077;Laerm;57448;51.490;5.436;2024-03-23T10:08:29;55.47;50.66;66.50;;
70077;Laerm;57448;51.490;5.436;2024-03-23T10:10:54;54.65;51.00;64.50;;
70077;Laerm;57448;51.490;5.436;2024-03-23T10:13:23;52.66;50.15;56.43;;
70077;Laerm;57448;51.490;5.436;2024-03-23T10:15:50;52.20;49.22;55.39;;
70077;Laerm;57448;51.490;5.436;2024-03-23T10:18:19;52.39;49.22;57.71;;
70077;Laerm;57448;51.490;5.436;2024-03-23T10:20:50;51.18;48.08;58.89;;
70077;Laerm;57448;51.490;5.436;2024-03-23T10:23:16;52.56;49.46;61.95;;
70077;Laerm;57448;51.490;5.436;2024-03-23T10:25:41;51.92;48.36;57.40;;
70077;Laerm;57448;51.490;5.436;2024-03-23T10:28:07;59.38;49.76;75.54;;
70077;Laerm;57448;51.490;5.436;2024-03-23T10:30:33;59.28;49.60;71.02;;
70077;Laerm;57448;51.490;5.436;2024-03-23T10:33:08;54.31;49.43;65.99;;
70077;Laerm;57448;51.490;5.436;2024-03-23T10:35:33;59.18;47.60;73.15;;
70077;Laerm;57448;51.490;5.436;2024-03-23T10:37:59;58.88;47.79;73.22;;
70077;Laerm;57448;51.490;5.436;2024-03-23T10:40:24;52.54;47.70;70.42;;
70077;Laerm;57448;51.490;5.436;2024-03-23T10:42:51;55.15;50.24;73.04;;
70077;Laerm;57448;51.490;5.436;2024-03-23T10:45:17;57.70;49.14;70.13;;
70077;Laerm;57448;51.490;5.436;2024-03-23T10:47:43;55.71;48.34;68.17;;
70077;Laerm;57448;51.490;5.436;2024-03-23T10:50:08;58.96;48.95;70.66;;
70077;Laerm;57448;51.490;5.436;2024-03-23T10:52:34;54.55;48.39;77.37;;
70077;Laerm;57448;51.490;5.436;2024-03-23T10:55:00;55.47;47.09;67.19;;
70077;Laerm;57448;51.490;5.436;2024-03-23T10:57:29;53.70;47.48;63.80;;
70077;Laerm;57448;51.490;5.436;2024-03-23T10:59:57;50.95;47.76;61.55;;
70077;Laerm;57448;51.490;5.436;2024-03-23T11:02:22;52.41;48.37;63.81;;
70077;Laerm;57448;51.490;5.436;2024-03-23T11:04:48;55.90;47.91;67.34;;
70077;Laerm;57448;51.490;5.436;2024-03-23T11:09:51;52.74;48.72;64.00;;
70077;Laerm;57448;51.490;5.436;2024-03-23T11:14:52;55.53;48.72;70.06;;
70077;Laerm;57448;51.490;5.436;2024-03-23T11:17:18;51.91;48.28;63.17;;
70077;Laerm;57448;51.490;5.436;2024-03-23T11:19:44;55.51;49.20;67.32;;
70077;Laerm;57448;51.490;5.436;2024-03-23T11:22:09;61.00;50.63;76.30;;
70077;Laerm;57448;51.490;5.436;2024-03-23T11:24:35;56.22;52.00;72.77;;
70077;Laerm;57448;51.490;5.436;2024-03-23T11:27:00;58.74;50.94;74.75;;
70077;Laerm;57448;51.490;5.436;2024-03-23T11:29:29;56.47;50.52;70.69;;
70077;Laerm;57448;51.490;5.436;2024-03-23T11:31:54;57.42;49.77;73.08;;
70077;Laerm;57448;51.490;5.436;2024-03-23T11:34:20;55.98;50.98;70.62;;
70077;Laerm;57448;51.490;5.436;2024-03-23T11:36:46;54.58;50.07;66.45;;
70077;Laerm;57448;51.490;5.436;2024-03-23T11:39:14;54.03;50.01;62.18;;
70077;Laerm;57448;51.490;5.436;2024-03-23T11:41:51;54.95;50.78;73.01;;
70077;Laerm;57448;51.490;5.436;2024-03-23T11:44:17;56.64;50.28;68.65;;
70077;Laerm;57448;51.490;5.436;2024-03-23T11:46:42;57.81;51.39;72.42;;
70077;Laerm;57448;51.490;5.436;2024-03-23T11:49:19;56.67;51.55;73.08;;
70077;Laerm;57448;51.490;5.436;2024-03-23T11:51:44;56.62;50.47;64.23;;
70077;Laerm;57448;51.490;5.436;2024-03-23T11:54:10;56.65;49.92;67.37;;
70077;Laerm;57448;51.490;5.436;2024-03-23T11:56:35;51.75;48.48;55.84;;
70077;Laerm;57448;51.490;5.436;2024-03-23T11:59:00;55.60;48.81;71.75;;
70077;Laerm;57448;51.490;5.436;2024-03-23T12:01:26;54.44;49.24;58.22;;
70077;Laerm;57448;51.490;5.436;2024-03-23T12:03:51;52.22;49.61;67.07;;
70077;Laerm;57448;51.490;5.436;2024-03-23T12:06:19;55.48;49.73;70.72;;
70077;Laerm;57448;51.490;5.436;2024-03-23T12:08:45;54.50;50.67;58.77;;
70077;Laerm;57448;51.490;5.436;2024-03-23T12:13:36;51.84;49.38;57.88;;
70077;Laerm;57448;51.490;5.436;2024-03-23T12:16:11;53.42;49.72;65.71;;
70077;Laerm;57448;51.490;5.436;2024-03-23T12:18:40;51.13;46.43;61.74;;
70077;Laerm;57448;51.490;5.436;2024-03-23T12:21:06;50.46;47.93;62.38;;
70077;Laerm;57448;51.490;5.436;2024-03-23T12:23:32;50.87;47.33;61.73;;
70077;Laerm;57448;51.490;5.436;2024-03-23T12:25:57;52.36;47.79;69.23;;
70077;Laerm;57448;51.490;5.436;2024-03-23T12:28:23;54.94;49.05;73.30;;
70077;Laerm;57448;51.490;5.436;2024-03-23T12:30:48;52.07;49.04;57.84;;
70077;Laerm;57448;51.490;5.436;2024-03-23T12:33:14;55.47;49.73;67.70;;
70077;Laerm;57448;51.490;5.436;2024-03-23T12:35:39;52.59;48.37;64.88;;
70077;Laerm;57448;51.490;5.436;2024-03-23T12:38:04;53.69;49.42;70.67;;
70077;Laerm;57448;51.490;5.436;2024-03-23T12:40:30;53.96;50.63;68.39;;
70077;Laerm;57448;51.490;5.436;2024-03-23T12:42:55;55.00;49.45;74.87;;
70077;Laerm;57448;51.490;5.436;2024-03-23T12:45:23;54.73;50.11;66.04;;
70077;Laerm;57448;51.490;5.436;2024-03-23T12:47:49;58.90;49.74;75.49;;
70077;Laerm;57448;51.490;5.436;2024-03-23T12:50:14;56.73;50.47;72.32;;
70077;Laerm;57448;51.490;5.436;2024-03-23T12:52:40;53.14;49.54;66.30;;
70077;Laerm;57448;51.490;5.436;2024-03-23T12:55:05;51.26;47.50;58.62;;
70077;Laerm;57448;51.490;5.436;2024-03-23T12:57:31;50.80;48.48;56.87;;
70077;Laerm;57448;51.490;5.436;2024-03-23T12:59:56;51.80;48.19;61.27;;
70077;Laerm;57448;51.490;5.436;2024-03-23T13:02:22;51.80;48.49;60.24;;
70077;Laerm;57448;51.490;5.436;2024-03-23T13:04:51;51.74;48.41;64.70;;
70077;Laerm;57448;51.490;5.436;2024-03-23T13:07:16;52.39;48.86;68.19;;
70077;Laerm;57448;51.490;5.436;2024-03-23T13:09:42;51.80;47.32;67.16;;
70077;Laerm;57448;51.490;5.436;2024-03-23T13:12:07;50.35;46.84;56.45;;
70077;Laerm;57448;51.490;5.436;2024-03-23T13:14:33;51.28;47.62;62.99;;
70077;Laerm;57448;51.490;5.436;2024-03-23T13:16:59;51.69;47.31;61.89;;
70077;Laerm;57448;51.490;5.436;2024-03-23T13:19:24;51.58;48.74;68.50;;
70077;Laerm;57448;51.490;5.436;2024-03-23T13:21:53;51.18;48.03;58.32;;
70077;Laerm;57448;51.490;5.436;2024-03-23T13:24:21;51.20;48.29;60.17;;
70077;Laerm;57448;51.490;5.436;2024-03-23T13:26:46;52.37;47.67;60.42;;
70077;Laerm;57448;51.490;5.436;2024-03-23T13:29:11;57.07;49.91;72.25;;
70077;Laerm;57448;51.490;5.436;2024-03-23T13:31:37;53.64;49.81;59.54;;
70077;Laerm;57448;51.490;5.436;2024-03-23T13:34:02;52.72;48.08;72.18;;
70077;Laerm;57448;51.490;5.436;2024-03-23T13:36:27;52.39;47.60;66.23;;
70077;Laerm;57448;51.490;5.436;2024-03-23T13:38:53;50.96;48.07;55.20;;
70077;Laerm;57448;51.490;5.436;2024-03-23T13:41:18;52.41;48.03;63.49;;
70077;Laerm;57448;51.490;5.436;2024-03-23T13:43:44;52.06;47.23;67.10;;
70077;Laerm;57448;51.490;5.436;2024-03-23T13:46:09;49.66;46.46;58.51;;
70077;Laerm;57448;51.490;5.436;2024-03-23T13:48:34;49.94;47.05;56.12;;
70077;Laerm;57448;51.490;5.436;2024-03-23T13:51:00;48.19;44.66;51.80;;
70077;Laerm;57448;51.490;5.436;2024-03-23T13:53:26;49.49;45.58;56.64;;
70077;Laerm;57448;51.490;5.436;2024-03-23T13:55:51;49.23;45.46;57.01;;
70077;Laerm;57448;51.490;5.436;2024-03-23T13:58:17;49.72;45.96;55.22;;
70077;Laerm;57448;51.490;5.436;2024-03-23T14:00:42;49.48;46.28;59.79;;
70077;Laerm;57448;51.490;5.436;2024-03-23T14:03:08;51.85;45.63;59.63;;
70077;Laerm;57448;51.490;5.436;2024-03-23T14:05:34;50.05;46.93;57.52;;
70077;Laerm;57448;51.490;5.436;2024-03-23T14:07:59;49.62;45.52;56.12;;
70077;Laerm;57448;51.490;5.436;2024-03-23T14:10:24;53.74;43.66;70.83;;
70077;Laerm;57448;51.490;5.436;2024-03-23T14:12:50;47.91;44.52;54.96;;
70077;Laerm;57448;51.490;5.436;2024-03-23T14:15:15;46.98;43.91;56.76;;
70077;Laerm;57448;51.490;5.436;2024-03-23T14:17:41;46.95;44.03;57.25;;
70077;Laerm;57448;51.490;5.436;2024-03-23T14:20:06;48.75;42.85;59.54;;
70077;Laerm;57448;51.490;5.436;2024-03-23T14:22:34;48.38;43.02;69.41;;
70077;Laerm;57448;51.490;5.436;2024-03-23T14:24:59;51.36;42.15;66.72;;
70077;Laerm;57448;51.490;5.436;2024-03-23T14:27:25;56.46;45.47;70.26;;
70077;Laerm;57448;51.490;5.436;2024-03-23T14:29:50;47.49;44.05;52.35;;
70077;Laerm;57448;51.490;5.436;2024-03-23T14:32:16;47.18;44.15;56.00;;
70077;Laerm;57448;51.490;5.436;2024-03-23T14:34:41;47.73;43.95;60.02;;
70077;Laerm;57448;51.490;5.436;2024-03-23T14:37:06;46.20;42.74;57.25;;